createdAt,value
2019-04-30T00:01:39.208Z,12.60
2019-04-30T00:04:16.543Z,12.60
2019-04-30T00:06:45.407Z,12.63
2019-04-30T00:09:18.969Z,12.62
2019-04-30T00:11:46.078Z,12.62
2019-04-30T00:14:15.334Z,12.64
2019-04-30T00:16:45.051Z,12.64
2019-04-30T00:19:15.768Z,12.64
2019-04-30T00:21:42.622Z,12.62
2019-04-30T00:24:10.466Z,12.66
2019-04-30T00:26:39.874Z,12.64
2019-04-30T00:29:08.473Z,12.64
2019-04-30T00:31:36.210Z,12.65
2019-04-30T00:34:05.017Z,12.68
2019-04-30T00:36:34.126Z,12.68
2019-04-30T00:39:07.150Z,12.66
2019-04-30T00:41:35.240Z,12.66
2019-04-30T00:44:05.291Z,12.63
2019-04-30T00:46:36.255Z,12.63
2019-04-30T00:49:11.217Z,12.68
2019-04-30T00:51:35.333Z,12.67
2019-04-30T00:54:03.164Z,12.74
2019-04-30T00:56:30.976Z,12.74
2019-04-30T00:59:02.435Z,12.68
2019-04-30T01:01:50.946Z,12.68
2019-04-30T01:04:38.276Z,12.69
2019-04-30T01:07:08.761Z,12.66
2019-04-30T01:09:39.606Z,12.65
2019-04-30T01:12:06.396Z,12.68
2019-04-30T01:14:34.313Z,12.67
2019-04-30T01:17:03.746Z,12.67
2019-04-30T01:19:35.081Z,12.65
2019-04-30T01:22:03.841Z,12.66
2019-04-30T01:24:32.701Z,12.62
2019-04-30T01:27:06.921Z,12.62
2019-04-30T01:29:38.055Z,12.58
2019-04-30T01:32:02.705Z,12.50
2019-04-30T01:34:30.531Z,12.50
2019-04-30T01:36:58.972Z,12.45
2019-04-30T01:39:30.039Z,12.52
2019-04-30T01:41:58.587Z,12.54
2019-04-30T01:44:26.471Z,12.56
2019-04-30T01:46:54.867Z,12.50
2019-04-30T01:49:25.763Z,12.44
2019-04-30T01:51:52.868Z,12.36
2019-04-30T01:54:24.308Z,12.32
2019-04-30T01:57:06.188Z,12.26
2019-04-30T01:59:56.124Z,12.25
2019-04-30T02:02:25.788Z,12.20
2019-04-30T02:04:53.552Z,12.20
2019-04-30T02:07:21.268Z,12.14
2019-04-30T02:09:49.959Z,12.16
2019-04-30T02:12:19.728Z,12.17
2019-04-30T02:14:49.464Z,12.16
2019-04-30T02:17:19.150Z,12.16
2019-04-30T02:19:54.726Z,12.14
2019-04-30T02:22:18.827Z,12.09
2019-04-30T02:24:48.607Z,11.96
2019-04-30T02:27:16.536Z,11.96
2019-04-30T02:29:44.318Z,11.94
2019-04-30T02:32:12.660Z,11.94
2019-04-30T02:34:46.405Z,11.92
2019-04-30T02:37:21.154Z,11.76
2019-04-30T02:39:50.287Z,11.76
2019-04-30T02:42:20.100Z,11.71
2019-04-30T02:44:51.026Z,11.71
2019-04-30T02:47:21.461Z,11.71
2019-04-30T02:49:53.344Z,11.60
2019-04-30T02:52:25.003Z,11.60
2019-04-30T02:54:55.091Z,11.61
2019-04-30T02:57:23.559Z,11.61
2019-04-30T03:00:10.194Z,11.60
2019-04-30T03:02:39.474Z,11.46
2019-04-30T03:05:12.826Z,11.44
2019-04-30T03:07:40.504Z,11.39
2019-04-30T03:10:10.085Z,11.42
2019-04-30T03:12:40.433Z,11.38
2019-04-30T03:15:09.952Z,11.38
2019-04-30T03:17:50.888Z,11.31
2019-04-30T03:20:44.153Z,11.34
2019-04-30T03:23:11.864Z,11.30
2019-04-30T03:25:40.527Z,11.30
2019-04-30T03:28:09.774Z,11.30
2019-04-30T03:30:41.662Z,11.27
2019-04-30T03:33:12.209Z,11.24
2019-04-30T03:35:46.620Z,11.19
2019-04-30T03:38:09.460Z,11.19
2019-04-30T03:40:40.204Z,11.17
2019-04-30T03:43:06.753Z,11.17
2019-04-30T03:45:34.644Z,11.11
2019-04-30T03:48:03.255Z,11.11
2019-04-30T03:50:48.220Z,11.05
2019-04-30T03:53:00.774Z,11.01
2019-04-30T03:55:29.882Z,10.99
2019-04-30T03:58:00.171Z,10.98
2019-04-30T04:00:46.744Z,10.94
2019-04-30T04:03:14.709Z,10.94
2019-04-30T04:06:09.409Z,10.84
2019-04-30T04:08:45.014Z,10.84
2019-04-30T04:11:23.413Z,10.83
2019-04-30T04:13:51.133Z,10.79
2019-04-30T04:16:19.459Z,10.79
2019-04-30T04:18:49.795Z,10.77
2019-04-30T04:21:20.165Z,10.68
2019-04-30T04:23:49.164Z,10.72
2019-04-30T04:26:16.405Z,10.72
2019-04-30T04:28:44.299Z,10.73
2019-04-30T04:31:12.622Z,10.67
2019-04-30T04:33:40.389Z,10.65
2019-04-30T04:36:09.198Z,10.57
2019-04-30T04:38:40.061Z,10.57
2019-04-30T04:41:10.102Z,10.57
2019-04-30T04:43:36.572Z,10.58
2019-04-30T04:46:04.282Z,10.57
2019-04-30T04:48:32.065Z,10.59
2019-04-30T04:51:00.258Z,10.54
2019-04-30T04:53:30.423Z,10.53
2019-04-30T04:55:59.924Z,10.49
2019-04-30T04:58:29.664Z,10.47
2019-04-30T05:00:59.236Z,10.44
2019-04-30T05:03:31.901Z,10.42
2019-04-30T05:06:02.373Z,10.36
2019-04-30T05:08:29.356Z,10.39
2019-04-30T05:10:57.310Z,10.23
2019-04-30T05:13:25.255Z,10.20
2019-04-30T05:15:53.055Z,10.27
2019-04-30T05:18:22.740Z,10.28
2019-04-30T05:20:50.449Z,10.28
2019-04-30T05:23:19.516Z,10.19
2019-04-30T05:25:49.079Z,10.13
2019-04-30T05:28:18.878Z,10.24
2019-04-30T05:30:46.867Z,10.24
2019-04-30T05:33:14.684Z,10.30
2019-04-30T05:35:42.431Z,10.30
2019-04-30T05:38:10.416Z,10.34
2019-04-30T05:40:39.818Z,10.35
2019-04-30T05:43:08.733Z,10.38
2019-04-30T05:45:39.025Z,10.33
2019-04-30T05:48:08.739Z,10.28
2019-04-30T05:50:36.646Z,10.29
2019-04-30T05:53:04.610Z,10.23
2019-04-30T05:55:32.408Z,10.18
2019-04-30T05:58:01.529Z,10.23
2019-04-30T06:00:30.605Z,10.19
2019-04-30T06:02:59.492Z,10.14
2019-04-30T06:05:28.629Z,10.23
2019-04-30T06:07:56.676Z,10.26
2019-04-30T06:10:42.422Z,10.26
2019-04-30T06:13:26.570Z,10.33
2019-04-30T06:16:11.830Z,10.30
2019-04-30T06:18:42.149Z,10.28
2019-04-30T06:21:09.431Z,10.19
2019-04-30T06:23:39.211Z,10.15
2019-04-30T06:26:09.943Z,10.16
2019-04-30T06:28:36.933Z,10.11
2019-04-30T06:31:04.754Z,10.18
2019-04-30T06:33:48.738Z,10.26
2019-04-30T06:36:19.048Z,10.26
2019-04-30T06:38:48.936Z,10.33
2019-04-30T06:41:16.775Z,10.39
2019-04-30T06:43:44.852Z,10.45
2019-04-30T06:46:12.768Z,10.54
2019-04-30T06:48:41.878Z,10.57
2019-04-30T06:51:09.753Z,10.63
2019-04-30T06:53:39.155Z,10.61
2019-04-30T06:56:08.918Z,10.54
2019-04-30T06:58:36.794Z,10.55
2019-04-30T07:01:04.518Z,10.58
2019-04-30T07:03:32.290Z,10.62
2019-04-30T07:06:00.053Z,10.73
2019-04-30T07:08:55.667Z,10.92
2019-04-30T07:11:24.922Z,10.92
2019-04-30T07:13:52.807Z,10.96
2019-04-30T07:16:20.610Z,11.00
2019-04-30T07:18:48.982Z,11.03
2019-04-30T07:21:16.881Z,11.07
2019-04-30T07:23:44.620Z,11.14
2019-04-30T07:26:13.734Z,11.18
2019-04-30T07:31:14.709Z,11.32
2019-04-30T07:33:42.539Z,11.41
2019-04-30T07:36:10.310Z,11.52
2019-04-30T07:38:45.727Z,11.62
2019-04-30T07:41:09.567Z,11.77
2019-04-30T07:43:39.256Z,11.88
2019-04-30T07:46:09.382Z,11.95
2019-04-30T07:48:39.928Z,11.98
2019-04-30T07:51:10.300Z,12.03
2019-04-30T07:53:36.979Z,12.20
2019-04-30T07:56:23.604Z,12.28
2019-04-30T07:58:34.758Z,12.28
2019-04-30T08:01:02.515Z,12.32
2019-04-30T08:03:55.635Z,12.33
2019-04-30T08:06:23.977Z,12.34
2019-04-30T08:08:57.054Z,12.37
2019-04-30T08:09:38.450Z,11.24
2019-04-30T08:11:25.666Z,12.32
2019-04-30T08:13:52.111Z,12.36
2019-04-30T08:16:20.207Z,12.38
2019-04-30T08:18:49.226Z,12.48
2019-04-30T08:21:19.021Z,12.46
2019-04-30T08:23:48.819Z,12.38
2019-04-30T08:26:18.704Z,12.38
2019-04-30T08:28:48.599Z,12.38
2019-04-30T08:31:16.224Z,12.29
2019-04-30T08:33:44.118Z,12.33
2019-04-30T08:36:11.942Z,12.27
2019-04-30T08:38:39.719Z,12.33
2019-04-30T08:41:09.298Z,12.39
2019-04-30T08:43:39.506Z,12.38
2019-04-30T08:46:09.295Z,12.31
2019-04-30T08:48:49.867Z,12.31
2019-04-30T08:51:09.347Z,12.16
2019-04-30T08:53:38.494Z,12.18
2019-04-30T08:56:06.492Z,12.12
2019-04-30T08:58:34.316Z,12.12
2019-04-30T09:01:02.107Z,12.23
2019-04-30T09:03:29.816Z,12.31
2019-04-30T09:06:09.343Z,12.38
2019-04-30T09:08:40.093Z,12.34
2019-04-30T09:11:21.821Z,12.34
2019-04-30T09:13:38.945Z,12.41
2019-04-30T09:16:09.243Z,12.40
2019-04-30T09:18:39.269Z,12.43
2019-04-30T09:21:08.873Z,12.47
2019-04-30T09:23:45.914Z,12.47
2019-04-30T09:26:08.544Z,12.45
2019-04-30T09:28:37.033Z,12.50
2019-04-30T09:31:06.171Z,12.50
2019-04-30T09:33:33.936Z,12.47
2019-04-30T09:36:01.823Z,12.53
2019-04-30T09:38:29.677Z,12.58
2019-04-30T09:40:59.434Z,12.61
2019-04-30T09:43:28.607Z,13.17
2019-04-30T09:45:56.768Z,13.40
2019-04-30T09:48:24.654Z,13.50
2019-04-30T09:50:52.833Z,13.50
2019-04-30T09:53:21.126Z,13.64
2019-04-30T09:55:50.282Z,13.68
2019-04-30T09:58:20.943Z,13.57
2019-04-30T10:00:50.201Z,13.57
2019-04-30T10:03:20.123Z,13.55
2019-04-30T10:05:49.161Z,13.55
2019-04-30T10:08:18.875Z,13.56
2019-04-30T10:10:58.791Z,13.44
2019-04-30T10:13:26.777Z,13.43
2019-04-30T10:16:15.064Z,13.49
2019-04-30T10:18:42.827Z,13.56
2019-04-30T10:21:10.747Z,13.65
2019-04-30T10:23:39.210Z,13.76
2019-04-30T10:26:07.052Z,13.87
2019-04-30T10:28:38.624Z,14.11
2019-04-30T10:31:06.936Z,14.11
2019-04-30T10:33:34.915Z,14.36
2019-04-30T10:36:02.872Z,14.62
2019-04-30T10:38:30.789Z,14.78
2019-04-30T10:40:59.324Z,14.99
2019-04-30T10:43:29.053Z,15.03
2019-04-30T10:45:58.563Z,15.04
2019-04-30T10:48:26.731Z,15.12
2019-04-30T10:50:56.344Z,15.18
2019-04-30T10:53:24.095Z,15.30
2019-04-30T10:55:51.798Z,15.43
2019-04-30T10:58:19.661Z,15.53
2019-04-30T11:00:48.002Z,15.70
2019-04-30T11:03:20.756Z,16.03
2019-04-30T11:05:48.692Z,16.22
2019-04-30T11:08:16.565Z,16.22
2019-04-30T11:10:44.477Z,16.36
2019-04-30T11:13:12.336Z,16.51
2019-04-30T11:15:40.030Z,16.59
2019-04-30T11:18:07.897Z,16.88
2019-04-30T11:20:35.987Z,16.88
2019-04-30T11:23:13.853Z,16.85
2019-04-30T11:25:34.745Z,16.84
2019-04-30T11:28:03.745Z,17.12
2019-04-30T11:30:32.116Z,17.40
2019-04-30T11:33:00.435Z,17.65
2019-04-30T11:35:29.668Z,17.77
2019-04-30T11:37:57.738Z,17.70
2019-04-30T11:40:34.531Z,17.58
2019-04-30T11:42:59.232Z,17.57
2019-04-30T11:46:08.742Z,17.51
2019-04-30T11:48:36.579Z,17.68
2019-04-30T11:51:09.437Z,17.98
2019-04-30T11:53:39.000Z,18.14
2019-04-30T11:56:06.972Z,18.40
2019-04-30T11:58:34.737Z,18.50
2019-04-30T12:01:03.950Z,18.71
2019-04-30T12:03:31.672Z,18.79
2019-04-30T12:05:59.489Z,18.46
2019-04-30T12:08:31.342Z,18.40
2019-04-30T12:11:06.387Z,18.54
2019-04-30T12:13:34.207Z,18.74
2019-04-30T12:16:02.152Z,18.70
2019-04-30T12:18:29.978Z,18.88
2019-04-30T12:20:57.939Z,19.21
2019-04-30T12:23:26.797Z,19.37
2019-04-30T12:25:54.535Z,19.63
2019-04-30T12:28:22.240Z,19.70
2019-04-30T12:30:50.102Z,19.89
2019-04-30T12:33:19.151Z,20.02
2019-04-30T12:35:49.231Z,20.22
2019-04-30T12:38:18.986Z,20.24
2019-04-30T12:40:46.624Z,20.20
2019-04-30T12:43:14.364Z,20.25
2019-04-30T12:45:42.319Z,20.43
2019-04-30T12:48:20.343Z,20.51
2019-04-30T12:51:09.008Z,20.88
2019-04-30T12:53:56.156Z,20.94
2019-04-30T12:56:41.807Z,20.38
2019-04-30T12:59:09.661Z,20.45
2019-04-30T13:01:39.766Z,20.54
2019-04-30T13:04:07.101Z,20.70
2019-04-30T13:06:35.673Z,20.70
2019-04-30T13:09:07.287Z,20.78
2019-04-30T13:11:37.304Z,21.03
2019-04-30T13:14:06.650Z,21.16
2019-04-30T13:16:35.271Z,21.17
2019-04-30T13:19:03.066Z,21.09
2019-04-30T13:21:31.014Z,21.19
2019-04-30T13:23:58.882Z,21.33
2019-04-30T13:26:28.491Z,21.33
2019-04-30T13:29:03.835Z,21.32
2019-04-30T13:31:31.671Z,21.34
2019-04-30T13:34:24.831Z,21.08
2019-04-30T13:36:52.611Z,20.99
2019-04-30T13:39:27.106Z,21.24
2019-04-30T13:42:00.215Z,21.19
2019-04-30T13:44:31.219Z,21.16
2019-04-30T13:46:59.011Z,21.38
2019-04-30T13:49:30.058Z,21.40
2019-04-30T13:51:56.563Z,21.54
2019-04-30T13:54:25.144Z,21.06
2019-04-30T13:56:52.889Z,20.94
2019-04-30T13:59:20.733Z,20.76
2019-04-30T14:01:48.966Z,20.89
2019-04-30T14:04:42.000Z,21.00
2019-04-30T14:07:28.832Z,21.18
2019-04-30T14:09:56.728Z,21.33
2019-04-30T14:12:24.574Z,21.46
2019-04-30T14:14:52.370Z,21.28
2019-04-30T14:17:20.426Z,21.06
2019-04-30T14:19:48.225Z,20.76
2019-04-30T14:22:16.116Z,20.62
2019-04-30T14:24:44.110Z,20.44
2019-04-30T14:27:24.890Z,20.76
2019-04-30T14:29:52.679Z,21.00
2019-04-30T14:32:20.452Z,21.04
2019-04-30T14:34:50.386Z,21.10
2019-04-30T14:37:18.069Z,21.05
2019-04-30T14:39:46.486Z,21.14
2019-04-30T14:42:15.338Z,21.35
2019-04-30T14:44:44.246Z,21.16
2019-04-30T14:47:30.089Z,20.95
2019-04-30T14:50:16.196Z,21.08
2019-04-30T14:53:03.408Z,20.73
2019-04-30T14:56:08.876Z,20.49
2019-04-30T14:59:04.648Z,20.28
2019-04-30T15:01:41.392Z,20.45
2019-04-30T15:04:09.265Z,20.65
2019-04-30T15:06:37.138Z,20.93
2019-04-30T15:09:07.161Z,20.67
2019-04-30T15:11:35.173Z,20.66
2019-04-30T15:14:03.439Z,20.50
2019-04-30T15:16:31.865Z,20.58
2019-04-30T15:18:59.735Z,20.74
2019-04-30T15:21:28.527Z,20.82
2019-04-30T15:24:06.804Z,20.85
2019-04-30T15:26:34.512Z,20.88
2019-04-30T15:29:10.155Z,20.76
2019-04-30T15:31:34.631Z,20.64
2019-04-30T15:34:13.025Z,20.42
2019-04-30T15:36:41.019Z,20.27
2019-04-30T15:39:39.384Z,20.40
2019-04-30T15:42:08.909Z,20.52
2019-04-30T15:44:42.691Z,20.40
2019-04-30T15:47:08.955Z,20.50
2019-04-30T15:49:36.931Z,20.50
2019-04-30T15:52:04.888Z,20.49
2019-04-30T15:54:32.971Z,20.52
2019-04-30T15:57:00.874Z,20.50
2019-04-30T15:59:39.562Z,20.55
2019-04-30T16:02:11.985Z,20.58
2019-04-30T16:05:01.972Z,20.57
2019-04-30T16:07:29.775Z,20.59
2019-04-30T16:10:05.432Z,20.54
2019-04-30T16:12:58.929Z,20.57
2019-04-30T16:15:27.172Z,20.48
2019-04-30T16:17:56.679Z,20.44
2019-04-30T16:20:24.448Z,20.45
2019-04-30T16:22:52.290Z,20.29
2019-04-30T16:25:20.005Z,20.24
2019-04-30T16:27:47.851Z,20.03
2019-04-30T16:30:15.948Z,20.01
2019-04-30T16:32:43.685Z,20.01
2019-04-30T16:35:11.470Z,19.82
2019-04-30T16:37:39.221Z,19.82
2019-04-30T16:40:08.309Z,19.86
2019-04-30T16:42:38.978Z,19.83
2019-04-30T16:45:09.160Z,19.73
2019-04-30T16:47:36.984Z,19.85
2019-04-30T16:50:05.200Z,19.87
2019-04-30T16:52:32.958Z,19.98
2019-04-30T16:55:00.865Z,19.90
2019-04-30T16:57:30.363Z,19.82
2019-04-30T16:59:59.367Z,19.86
2019-04-30T17:02:29.543Z,19.69
2019-04-30T17:05:20.330Z,19.42
2019-04-30T17:07:56.166Z,19.46
2019-04-30T17:10:43.333Z,19.34
2019-04-30T17:13:25.260Z,19.35
2019-04-30T17:15:55.992Z,19.32
2019-04-30T17:18:23.751Z,19.32
2019-04-30T17:20:51.447Z,19.15
2019-04-30T17:23:19.462Z,19.25
2019-04-30T17:25:47.547Z,19.23
2019-04-30T17:28:18.666Z,19.17
2019-04-30T17:30:46.368Z,19.16
2019-04-30T17:33:14.100Z,18.99
2019-04-30T17:35:41.790Z,19.01
2019-04-30T17:38:09.631Z,18.99
2019-04-30T17:40:38.984Z,18.92
2019-04-30T17:43:06.968Z,18.96
2019-04-30T17:45:34.666Z,18.95
2019-04-30T17:48:02.629Z,18.91
2019-04-30T17:50:30.320Z,18.87
2019-04-30T17:53:00.516Z,18.87
2019-04-30T17:55:29.153Z,18.85
2019-04-30T17:57:58.551Z,18.83
2019-04-30T18:00:29.373Z,18.79
2019-04-30T18:02:57.843Z,18.76
2019-04-30T18:05:26.417Z,18.67
2019-04-30T18:07:56.064Z,18.60
2019-04-30T18:10:24.255Z,18.59
2019-04-30T18:12:52.791Z,18.52
2019-04-30T18:15:23.200Z,18.46
2019-04-30T18:17:58.067Z,18.35
2019-04-30T18:20:39.198Z,18.34
2019-04-30T18:23:25.070Z,18.24
2019-04-30T18:26:06.966Z,18.16
2019-04-30T18:28:34.862Z,18.04
2019-04-30T18:31:02.660Z,17.99
2019-04-30T18:33:30.508Z,17.95
2019-04-30T18:35:59.680Z,17.89
2019-04-30T18:38:29.266Z,17.81
2019-04-30T18:40:57.172Z,17.76
2019-04-30T18:43:24.923Z,17.71
2019-04-30T18:45:52.730Z,17.68
2019-04-30T18:48:20.586Z,17.64
2019-04-30T18:50:48.579Z,17.60
2019-04-30T18:53:21.203Z,17.54
2019-04-30T18:55:50.751Z,17.51
2019-04-30T18:58:20.026Z,17.51
2019-04-30T19:00:49.422Z,17.49
2019-04-30T19:03:21.164Z,17.44
2019-04-30T19:05:51.505Z,17.43
2019-04-30T19:08:39.465Z,17.36
2019-04-30T19:11:28.944Z,17.33
2019-04-30T19:14:05.777Z,17.29
2019-04-30T19:16:50.996Z,17.20
2019-04-30T19:19:25.567Z,17.17
2019-04-30T19:21:53.255Z,17.14
2019-04-30T19:24:21.061Z,17.12
2019-04-30T19:26:48.955Z,17.08
2019-04-30T19:29:16.815Z,17.07
2019-04-30T19:31:44.496Z,17.03
2019-04-30T19:34:12.354Z,17.01
2019-04-30T19:36:40.662Z,16.95
2019-04-30T19:39:12.870Z,16.88
2019-04-30T19:41:40.617Z,16.84
2019-04-30T19:44:09.027Z,16.78
2019-04-30T19:46:36.985Z,16.75
2019-04-30T19:49:04.815Z,16.71
2019-04-30T19:51:33.052Z,16.66
2019-04-30T19:54:01.443Z,16.63
2019-04-30T19:56:30.413Z,16.56
2019-04-30T19:59:02.846Z,16.53
2019-04-30T20:01:28.810Z,16.49
2019-04-30T20:03:58.677Z,16.42
2019-04-30T20:06:28.685Z,16.37
2019-04-30T20:08:56.583Z,16.33
2019-04-30T20:11:24.411Z,16.28
2019-04-30T20:13:52.500Z,16.27
2019-04-30T20:16:21.134Z,16.26
2019-04-30T20:18:49.117Z,16.21
2019-04-30T20:21:27.943Z,16.17
2019-04-30T20:23:48.884Z,16.15
2019-04-30T20:26:16.824Z,16.11
2019-04-30T20:28:44.640Z,16.07
2019-04-30T20:31:12.748Z,16.04
2019-04-30T20:33:40.450Z,15.99
2019-04-30T20:36:09.257Z,15.91
2019-04-30T20:38:45.966Z,15.90
2019-04-30T20:41:22.031Z,15.81
2019-04-30T20:43:49.896Z,15.78
2019-04-30T20:46:29.748Z,15.74
2019-04-30T20:48:49.166Z,15.67
2019-04-30T20:51:17.072Z,15.65
2019-04-30T20:53:45.746Z,15.55
2019-04-30T20:56:13.501Z,15.51
2019-04-30T20:58:54.575Z,15.31
2019-04-30T21:01:12.089Z,15.18
2019-04-30T21:03:40.236Z,15.19
2019-04-30T21:06:08.916Z,14.92
2019-04-30T21:08:36.755Z,14.85
2019-04-30T21:11:04.488Z,14.78
2019-04-30T21:13:32.177Z,14.69
2019-04-30T21:16:00.964Z,14.59
2019-04-30T21:18:32.020Z,14.62
2019-04-30T21:20:59.622Z,14.53
2019-04-30T21:23:29.248Z,14.57
2019-04-30T21:25:58.975Z,14.61
2019-04-30T21:28:26.931Z,14.56
2019-04-30T21:30:54.735Z,14.53
2019-04-30T21:33:32.259Z,14.39
2019-04-30T21:36:08.833Z,14.39
2019-04-30T21:38:36.665Z,14.44
2019-04-30T21:41:04.471Z,14.26
2019-04-30T21:43:32.152Z,14.26
2019-04-30T21:45:59.933Z,14.31
2019-04-30T21:48:28.789Z,14.07
2019-04-30T21:50:56.688Z,14.15
2019-04-30T21:53:24.474Z,14.27
2019-04-30T21:55:52.212Z,14.24
2019-04-30T21:58:20.426Z,14.22
2019-04-30T22:01:24.605Z,14.11
2019-04-30T22:03:52.537Z,14.16
2019-04-30T22:06:20.539Z,14.10
2019-04-30T22:08:48.630Z,14.06
2019-04-30T22:11:16.425Z,13.99
2019-04-30T22:13:44.464Z,13.93
2019-04-30T22:16:12.171Z,13.93
2019-04-30T22:18:39.915Z,14.00
2019-04-30T22:21:07.814Z,13.93
2019-04-30T22:23:36.319Z,13.77
2019-04-30T22:26:04.376Z,13.86
2019-04-30T22:28:32.217Z,13.81
2019-04-30T22:31:00.055Z,13.75
2019-04-30T22:33:29.245Z,13.72
2019-04-30T22:36:02.856Z,13.57
2019-04-30T22:38:34.790Z,13.34
2019-04-30T22:41:02.652Z,13.21
2019-04-30T22:43:30.561Z,13.11
2019-04-30T22:46:03.484Z,13.11
2019-04-30T22:48:31.227Z,13.01
2019-04-30T22:50:59.024Z,13.01
2019-04-30T22:53:26.795Z,13.09
2019-04-30T22:55:54.502Z,13.10
2019-04-30T22:58:22.371Z,12.92
2019-04-30T23:00:52.172Z,12.84
2019-04-30T23:03:26.378Z,12.85
2019-04-30T23:05:54.084Z,12.94
2019-04-30T23:08:21.856Z,12.91
2019-04-30T23:10:49.988Z,12.94
2019-04-30T23:13:18.262Z,12.92
2019-04-30T23:15:49.514Z,12.92
2019-04-30T23:18:17.585Z,13.01
2019-04-30T23:20:45.306Z,13.00
2019-04-30T23:23:14.667Z,13.06
2019-04-30T23:25:42.540Z,13.04
2019-04-30T23:28:10.284Z,13.04
2019-04-30T23:30:38.796Z,13.09
2019-04-30T23:33:06.593Z,13.06
2019-04-30T23:35:34.442Z,12.95
2019-04-30T23:38:02.354Z,12.94
2019-04-30T23:40:46.090Z,12.90
2019-04-30T23:43:13.863Z,12.91
2019-04-30T23:45:41.732Z,12.87
2019-04-30T23:48:09.638Z,12.87
2019-04-30T23:50:37.374Z,12.89
2019-04-30T23:53:05.088Z,12.82
2019-04-30T23:55:32.970Z,12.82
2019-04-30T23:58:00.780Z,12.68
